createdAt,value
2019-05-22T00:07:18.551Z,98.80
2019-05-22T00:09:56.514Z,98.90
2019-05-22T00:12:27.613Z,99.10
2019-05-22T00:14:57.507Z,99.10
2019-05-22T00:17:30.467Z,99.00
2019-05-22T00:20:00.767Z,99.00
2019-05-22T00:22:31.365Z,98.90
2019-05-22T00:25:01.921Z,98.80
2019-05-22T00:27:32.616Z,99.20
2019-05-22T00:30:02.442Z,99.10
2019-05-22T00:32:33.381Z,99.10
2019-05-22T00:35:02.802Z,99.40
2019-05-22T00:37:37.804Z,99.40
2019-05-22T00:40:12.521Z,99.40
2019-05-22T00:42:43.444Z,99.30
2019-05-22T00:45:15.559Z,99.40
2019-05-22T00:47:49.024Z,99.90
2019-05-22T00:50:22.924Z,99.70
2019-05-22T00:52:58.921Z,99.70
2019-05-22T00:55:39.930Z,99.60
2019-05-22T00:58:30.795Z,99.40
2019-05-22T01:01:05.110Z,99.30
2019-05-22T01:03:34.198Z,99.20
2019-05-22T01:06:05.956Z,99.40
2019-05-22T01:08:37.424Z,99.60
2019-05-22T01:11:07.810Z,99.50
2019-05-22T01:13:37.763Z,99.40
2019-05-22T01:16:08.555Z,99.60
2019-05-22T01:18:39.021Z,99.80
2019-05-22T01:21:08.127Z,99.50
2019-05-22T01:23:38.928Z,99.40
2019-05-22T01:26:09.685Z,99.20
2019-05-22T01:28:39.290Z,99.30
2019-05-22T01:31:12.476Z,99.40
2019-05-22T01:34:02.072Z,99.40
2019-05-22T01:36:33.363Z,99.40
2019-05-22T01:39:12.726Z,99.40
2019-05-22T01:41:44.649Z,99.80
2019-05-22T01:44:14.392Z,99.90
2019-05-22T01:46:46.229Z,99.90
2019-05-22T01:49:16.988Z,99.90
2019-05-22T01:51:46.912Z,99.90
2019-05-22T01:54:16.447Z,99.90
2019-05-22T01:56:46.127Z,99.90
2019-05-22T01:59:15.559Z,99.90
2019-05-22T02:01:45.342Z,99.90
2019-05-22T02:04:15.131Z,99.90
2019-05-22T02:06:44.721Z,99.90
2019-05-22T02:09:24.506Z,99.90
2019-05-22T02:11:57.223Z,99.90
2019-05-22T02:14:27.809Z,99.90
2019-05-22T02:16:58.895Z,99.90
2019-05-22T02:19:28.597Z,99.90
2019-05-22T02:21:59.430Z,99.90
2019-05-22T02:24:28.793Z,99.90
2019-05-22T02:26:58.807Z,99.90
2019-05-22T02:29:29.545Z,99.90
2019-05-22T02:31:58.373Z,99.90
2019-05-22T02:34:28.460Z,99.90
2019-05-22T02:36:57.976Z,99.90
2019-05-22T02:39:34.910Z,99.90
2019-05-22T02:42:06.647Z,99.90
2019-05-22T02:44:37.013Z,99.90
2019-05-22T02:47:18.179Z,99.90
2019-05-22T02:49:37.147Z,99.90
2019-05-22T02:52:07.730Z,99.90
2019-05-22T02:54:39.295Z,99.90
2019-05-22T02:57:37.682Z,99.90
2019-05-22T03:00:28.386Z,99.90
2019-05-22T03:02:57.943Z,99.90
2019-05-22T03:05:28.230Z,99.90
2019-05-22T03:14:28.556Z,99.90
2019-05-22T03:17:13.945Z,99.90
2019-05-22T03:19:52.264Z,99.90
2019-05-22T03:22:31.144Z,99.90
2019-05-22T03:25:02.327Z,99.90
2019-05-22T03:27:41.029Z,99.90
2019-05-22T03:31:41.889Z,99.90
2019-05-22T03:33:10.448Z,99.90
2019-05-22T03:35:54.076Z,99.90
2019-05-22T03:38:23.414Z,99.90
2019-05-22T03:42:12.195Z,99.90
2019-05-22T03:44:13.851Z,99.90
2019-05-22T03:46:59.500Z,99.90
2019-05-22T03:49:32.320Z,99.90
2019-05-22T03:52:20.619Z,99.90
2019-05-22T03:54:49.615Z,99.90
2019-05-22T03:57:19.554Z,99.90
2019-05-22T03:59:49.160Z,99.90
2019-05-22T04:02:18.876Z,99.90
2019-05-22T04:04:48.049Z,99.90
2019-05-22T04:07:19.985Z,99.90
2019-05-22T04:09:49.594Z,99.90
2019-05-22T04:12:18.730Z,99.90
2019-05-22T04:14:48.373Z,99.80
2019-05-22T04:17:18.970Z,99.90
2019-05-22T04:19:51.967Z,99.90
2019-05-22T04:22:21.749Z,99.90
2019-05-22T04:24:51.574Z,99.90
2019-05-22T04:27:20.450Z,99.90
2019-05-22T04:29:50.164Z,99.90
2019-05-22T04:32:21.901Z,99.90
2019-05-22T04:34:52.139Z,99.90
2019-05-22T04:37:21.441Z,99.90
2019-05-22T04:39:52.667Z,99.90
2019-05-22T04:42:23.940Z,99.90
2019-05-22T04:45:11.213Z,99.90
2019-05-22T04:47:43.573Z,99.90
2019-05-22T04:50:13.039Z,99.90
2019-05-22T04:52:41.960Z,99.90
2019-05-22T04:55:11.633Z,99.90
2019-05-22T04:57:41.565Z,99.90
2019-05-22T05:00:17.042Z,99.90
2019-05-22T05:02:46.022Z,99.90
2019-05-22T05:05:16.302Z,99.90
2019-05-22T05:07:47.608Z,99.90
2019-05-22T05:10:17.215Z,99.90
2019-05-22T05:12:46.413Z,99.90
2019-05-22T05:15:20.118Z,99.90
2019-05-22T05:17:52.215Z,99.90
2019-05-22T05:20:25.430Z,99.90
2019-05-22T05:22:54.198Z,99.90
2019-05-22T05:25:26.070Z,99.90
2019-05-22T05:27:58.516Z,99.90
2019-05-22T05:30:31.923Z,99.90
2019-05-22T05:33:03.753Z,99.90
2019-05-22T05:35:32.757Z,99.90
2019-05-22T05:38:04.887Z,99.90
2019-05-22T05:40:39.410Z,99.90
2019-05-22T05:43:10.587Z,99.90
2019-05-22T05:45:44.577Z,99.90
2019-05-22T05:48:18.499Z,99.90
2019-05-22T05:51:06.562Z,99.90
2019-05-22T05:53:40.083Z,99.70
2019-05-22T05:56:14.879Z,99.70
2019-05-22T05:58:46.329Z,99.50
2019-05-22T06:01:22.387Z,99.70
2019-05-22T06:03:51.585Z,99.60
2019-05-22T06:06:27.444Z,99.10
2019-05-22T06:09:00.544Z,99.00
2019-05-22T06:11:42.991Z,98.70
2019-05-22T06:14:21.414Z,97.90
2019-05-22T06:16:57.910Z,97.90
2019-05-22T06:19:29.270Z,97.90
2019-05-22T06:22:00.481Z,97.70
2019-05-22T06:24:37.290Z,97.50
2019-05-22T06:27:14.471Z,97.60
2019-05-22T06:29:48.992Z,97.60
2019-05-22T06:32:33.019Z,97.10
2019-05-22T06:35:05.611Z,96.90
2019-05-22T06:38:12.796Z,96.20
2019-05-22T06:40:43.617Z,96.20
2019-05-22T06:43:25.109Z,95.80
2019-05-22T06:45:55.339Z,95.10
2019-05-22T06:48:24.337Z,95.30
2019-05-22T06:50:53.322Z,95.40
2019-05-22T06:53:22.254Z,95.30
2019-05-22T06:58:34.874Z,94.70
2019-05-22T07:01:08.632Z,95.10
2019-05-22T07:06:37.257Z,94.30
2019-05-22T07:09:20.121Z,94.30
2019-05-22T07:15:07.159Z,93.60
2019-05-22T07:17:37.671Z,93.30
2019-05-22T07:20:18.406Z,93.00
2019-05-22T07:22:47.642Z,93.10
2019-05-22T07:25:17.161Z,92.20
2019-05-22T07:27:54.838Z,91.60
2019-05-22T07:30:24.374Z,91.90
2019-05-22T07:32:55.522Z,91.60
2019-05-22T07:35:42.384Z,90.70
2019-05-22T07:37:56.958Z,90.50
2019-05-22T07:40:40.781Z,89.90
2019-05-22T07:43:01.863Z,90.00
2019-05-22T07:45:32.861Z,89.70
2019-05-22T07:48:48.278Z,87.30
2019-05-22T07:54:31.123Z,84.60
2019-05-22T07:57:00.377Z,84.90
2019-05-22T07:59:29.284Z,84.20
2019-05-22T08:01:58.562Z,84.70
2019-05-22T08:04:27.586Z,82.60
2019-05-22T08:06:56.566Z,81.20
2019-05-22T08:09:28.226Z,82.80
2019-05-22T08:11:58.602Z,82.20
2019-05-22T08:14:28.487Z,81.60
2019-05-22T08:16:57.841Z,81.30
2019-05-22T08:19:27.062Z,79.70
2019-05-22T08:22:06.756Z,80.70
2019-05-22T08:24:27.504Z,81.20
2019-05-22T08:26:57.519Z,81.60
2019-05-22T08:29:26.940Z,81.10
2019-05-22T08:31:56.424Z,80.10
2019-05-22T08:34:26.331Z,79.00
2019-05-22T08:36:58.396Z,77.50
2019-05-22T08:39:28.114Z,78.10
2019-05-22T08:41:58.082Z,79.60
2019-05-22T08:44:28.141Z,78.20
2019-05-22T08:46:57.445Z,77.10
2019-05-22T08:49:27.634Z,75.90
2019-05-22T08:51:57.375Z,77.10
2019-05-22T08:54:34.639Z,77.00
2019-05-22T08:57:02.570Z,75.70
2019-05-22T08:59:33.055Z,75.00
2019-05-22T09:02:07.602Z,73.00
2019-05-22T09:04:39.629Z,74.50
2019-05-22T09:07:11.282Z,70.40
2019-05-22T09:09:47.876Z,70.40
2019-05-22T09:12:17.318Z,69.60
2019-05-22T09:14:46.827Z,66.70
2019-05-22T09:17:16.153Z,66.20
2019-05-22T09:19:48.479Z,63.70
2019-05-22T09:25:26.453Z,65.20
2019-05-22T09:27:57.337Z,65.40
2019-05-22T09:30:28.981Z,63.00
2019-05-22T09:32:58.478Z,62.00
2019-05-22T09:35:27.996Z,62.90
2019-05-22T09:37:58.321Z,62.20
2019-05-22T09:40:33.451Z,62.00
2019-05-22T09:43:03.929Z,61.20
2019-05-22T09:45:36.234Z,60.20
2019-05-22T09:48:08.133Z,58.70
2019-05-22T09:50:55.405Z,58.60
2019-05-22T09:53:27.422Z,60.80
2019-05-22T09:55:56.960Z,62.20
2019-05-22T09:58:25.751Z,59.70
2019-05-22T10:00:54.855Z,60.40
2019-05-22T10:03:24.265Z,60.20
2019-05-22T10:05:53.539Z,59.70
2019-05-22T10:08:22.734Z,60.40
2019-05-22T10:10:51.528Z,60.70
2019-05-22T10:13:20.737Z,60.40
2019-05-22T10:15:49.569Z,59.10
2019-05-22T10:18:18.400Z,61.40
2019-05-22T10:20:48.170Z,60.30
2019-05-22T10:23:18.264Z,61.30
2019-05-22T10:25:47.917Z,59.00
2019-05-22T10:28:18.374Z,57.80
2019-05-22T10:30:51.033Z,55.90
2019-05-22T10:33:20.523Z,54.70
2019-05-22T10:35:50.174Z,55.20
2019-05-22T10:38:19.232Z,54.50
2019-05-22T10:40:48.627Z,54.10
2019-05-22T10:43:17.538Z,54.20
2019-05-22T10:45:46.601Z,55.50
2019-05-22T10:48:15.274Z,56.20
2019-05-22T10:50:44.579Z,57.30
2019-05-22T10:53:30.567Z,58.00
2019-05-22T10:55:48.816Z,58.60
2019-05-22T10:58:40.954Z,59.00
2019-05-22T11:01:22.693Z,58.70
2019-05-22T11:03:53.175Z,57.20
2019-05-22T11:06:23.635Z,58.00
2019-05-22T11:08:59.502Z,57.90
2019-05-22T11:11:29.865Z,57.80
2019-05-22T11:14:02.347Z,57.60
2019-05-22T11:16:32.258Z,57.60
2019-05-22T11:19:06.082Z,56.50
2019-05-22T11:21:36.179Z,55.70
2019-05-22T11:24:05.613Z,56.00
2019-05-22T11:26:34.355Z,56.40
2019-05-22T11:29:04.949Z,56.30
2019-05-22T11:31:34.110Z,56.90
2019-05-22T11:34:03.014Z,57.10
2019-05-22T11:36:32.108Z,56.00
2019-05-22T11:39:00.986Z,56.40
2019-05-22T11:41:30.181Z,55.80
2019-05-22T11:43:58.987Z,55.60
2019-05-22T11:46:27.759Z,56.50
2019-05-22T11:48:56.761Z,55.90
2019-05-22T11:51:25.647Z,57.00
2019-05-22T11:54:08.064Z,56.10
2019-05-22T11:56:25.458Z,55.50
2019-05-22T11:58:54.537Z,55.60
2019-05-22T12:01:23.546Z,53.90
2019-05-22T12:03:52.725Z,53.20
2019-05-22T12:06:22.969Z,53.40
2019-05-22T12:08:51.907Z,51.80
2019-05-22T12:11:22.609Z,51.70
2019-05-22T12:13:51.650Z,50.30
2019-05-22T12:16:21.382Z,50.10
2019-05-22T12:18:50.469Z,50.50
2019-05-22T12:21:19.635Z,51.70
2019-05-22T12:23:48.931Z,49.50
2019-05-22T12:26:19.382Z,48.60
2019-05-22T12:28:48.483Z,49.00
2019-05-22T12:31:19.486Z,49.00
2019-05-22T12:33:49.121Z,48.00
2019-05-22T12:36:18.503Z,48.50
2019-05-22T12:38:47.193Z,49.60
2019-05-22T12:41:18.990Z,47.80
2019-05-22T12:43:48.283Z,46.00
2019-05-22T12:46:20.254Z,43.40
2019-05-22T12:48:49.488Z,42.60
2019-05-22T12:51:19.669Z,42.60
2019-05-22T12:53:48.878Z,42.60
2019-05-22T12:56:18.590Z,43.20
2019-05-22T12:58:47.800Z,41.20
2019-05-22T13:01:21.230Z,41.80
2019-05-22T13:03:50.440Z,41.90
2019-05-22T13:06:19.186Z,43.50
2019-05-22T13:08:48.062Z,46.80
2019-05-22T13:11:17.350Z,46.80
2019-05-22T13:13:46.852Z,47.00
2019-05-22T13:16:16.198Z,44.60
2019-05-22T13:18:46.101Z,42.70
2019-05-22T13:21:20.804Z,40.90
2019-05-22T13:23:51.592Z,39.30
2019-05-22T13:26:27.767Z,40.30
2019-05-22T13:28:57.802Z,40.20
2019-05-22T13:31:27.007Z,40.80
2019-05-22T13:34:02.939Z,42.30
2019-05-22T13:36:32.447Z,41.80
2019-05-22T13:39:01.535Z,41.40
2019-05-22T13:41:30.525Z,40.50
2019-05-22T13:44:00.477Z,40.20
2019-05-22T13:46:30.979Z,41.60
2019-05-22T13:49:00.150Z,41.60
2019-05-22T13:51:29.247Z,40.00
2019-05-22T13:53:59.538Z,37.80
2019-05-22T13:56:29.308Z,39.60
2019-05-22T13:59:00.137Z,42.90
2019-05-22T14:01:29.347Z,45.20
2019-05-22T14:04:00.481Z,46.80
2019-05-22T14:06:31.415Z,48.00
2019-05-22T14:09:00.691Z,49.40
2019-05-22T14:11:32.170Z,50.10
2019-05-22T14:14:01.199Z,50.30
2019-05-22T14:16:30.960Z,50.10
2019-05-22T14:18:59.936Z,49.30
2019-05-22T14:21:28.787Z,47.10
2019-05-22T14:23:57.752Z,46.50
2019-05-22T14:26:29.890Z,47.20
2019-05-22T14:29:00.813Z,48.30
2019-05-22T14:31:29.636Z,49.70
2019-05-22T14:33:59.703Z,49.80
2019-05-22T14:36:30.119Z,48.30
2019-05-22T14:39:00.533Z,47.30
2019-05-22T14:41:31.024Z,44.90
2019-05-22T14:44:12.926Z,43.20
2019-05-22T14:46:41.493Z,42.10
2019-05-22T14:49:10.498Z,42.60
2019-05-22T14:51:39.291Z,43.90
2019-05-22T14:54:09.545Z,43.00
2019-05-22T14:56:38.894Z,42.00
2019-05-22T14:59:08.400Z,41.80
2019-05-22T15:01:37.737Z,41.20
2019-05-22T15:04:06.766Z,40.60
2019-05-22T15:06:36.519Z,39.40
2019-05-22T15:09:07.750Z,37.50
2019-05-22T15:11:36.694Z,35.90
2019-05-22T15:14:05.748Z,37.60
2019-05-22T15:16:35.360Z,37.00
2019-05-22T15:19:04.299Z,35.70
2019-05-22T15:21:33.782Z,38.00
2019-05-22T15:24:04.411Z,40.60
2019-05-22T15:26:34.010Z,41.50
2019-05-22T15:29:02.915Z,42.70
2019-05-22T15:31:32.316Z,43.60
2019-05-22T15:34:02.854Z,44.00
2019-05-22T15:36:35.928Z,44.00
2019-05-22T15:39:06.515Z,43.40
2019-05-22T15:41:35.616Z,41.70
2019-05-22T15:44:06.096Z,42.00
2019-05-22T15:46:35.381Z,42.80
2019-05-22T15:49:06.132Z,44.30
2019-05-22T15:51:35.548Z,46.10
2019-05-22T15:54:07.177Z,47.10
2019-05-22T15:56:40.692Z,46.50
2019-05-22T15:59:12.336Z,46.70
2019-05-22T16:01:42.984Z,47.40
2019-05-22T16:04:15.253Z,49.20
2019-05-22T16:06:46.017Z,50.00
2019-05-22T16:09:17.139Z,47.90
2019-05-22T16:11:49.711Z,46.00
2019-05-22T16:14:21.645Z,45.00
2019-05-22T16:16:51.507Z,45.20
2019-05-22T16:19:23.655Z,46.60
2019-05-22T16:21:56.026Z,46.30
2019-05-22T16:24:25.016Z,46.90
2019-05-22T16:26:54.478Z,45.70
2019-05-22T16:29:24.748Z,45.30
2019-05-22T16:31:56.184Z,44.90
2019-05-22T16:34:28.277Z,47.60
2019-05-22T16:36:56.877Z,48.70
2019-05-22T16:39:27.377Z,49.20
2019-05-22T16:41:56.482Z,49.80
2019-05-22T16:44:25.765Z,50.40
2019-05-22T16:46:56.820Z,51.70
2019-05-22T16:49:27.724Z,52.00
2019-05-22T16:51:56.555Z,52.00
2019-05-22T16:54:26.117Z,50.30
2019-05-22T16:56:55.448Z,47.80
2019-05-22T16:59:24.460Z,46.90
2019-05-22T17:01:59.549Z,44.80
2019-05-22T17:04:25.848Z,43.70
2019-05-22T17:06:54.973Z,42.90
2019-05-22T17:09:24.155Z,44.40
2019-05-22T17:11:53.087Z,46.10
2019-05-22T17:14:23.722Z,47.90
2019-05-22T17:16:53.315Z,49.40
2019-05-22T17:19:27.742Z,50.80
2019-05-22T17:22:01.781Z,52.10
2019-05-22T17:24:34.026Z,52.80
2019-05-22T17:27:03.461Z,54.00
2019-05-22T17:29:34.579Z,55.30
2019-05-22T17:32:05.244Z,55.80
2019-05-22T17:34:37.462Z,56.40
2019-05-22T17:37:09.380Z,55.90
2019-05-22T17:39:41.813Z,55.20
2019-05-22T17:42:13.133Z,55.40
2019-05-22T17:44:44.398Z,55.80
2019-05-22T17:47:13.627Z,55.60
2019-05-22T17:49:43.623Z,55.80
2019-05-22T17:52:19.529Z,55.80
2019-05-22T17:54:49.801Z,56.50
2019-05-22T17:57:19.695Z,56.60
2019-05-22T17:59:48.478Z,56.20
2019-05-22T18:02:20.462Z,57.40
2019-05-22T18:04:51.222Z,57.90
2019-05-22T18:07:21.000Z,58.00
2019-05-22T18:09:55.658Z,57.90
2019-05-22T18:12:28.644Z,58.70
2019-05-22T18:15:02.194Z,59.20
2019-05-22T18:17:33.233Z,63.50
2019-05-22T18:20:03.731Z,68.30
2019-05-22T18:22:33.389Z,69.20
2019-05-22T18:25:06.394Z,70.60
2019-05-22T18:27:35.353Z,72.40
2019-05-22T18:30:05.776Z,74.60
2019-05-22T18:32:38.109Z,75.60
2019-05-22T18:35:09.567Z,76.70
2019-05-22T18:37:38.305Z,77.30
2019-05-22T18:40:08.275Z,77.90
2019-05-22T18:42:37.501Z,78.20
2019-05-22T18:45:12.695Z,79.20
2019-05-22T18:47:38.922Z,80.90
2019-05-22T18:50:08.717Z,82.70
2019-05-22T18:52:40.886Z,83.30
2019-05-22T18:55:19.245Z,83.70
2019-05-22T18:57:42.740Z,84.30
2019-05-22T19:00:13.610Z,83.60
2019-05-22T19:02:45.403Z,84.60
2019-05-22T19:05:15.675Z,84.40
2019-05-22T19:07:44.482Z,85.40
2019-05-22T19:10:14.666Z,84.20
2019-05-22T19:12:44.070Z,82.30
2019-05-22T19:15:13.403Z,81.20
2019-05-22T19:17:43.974Z,80.40
2019-05-22T19:20:15.202Z,80.30
2019-05-22T19:22:58.441Z,79.40
2019-05-22T19:25:14.726Z,79.40
2019-05-22T19:27:43.570Z,79.60
2019-05-22T19:30:13.326Z,79.80
2019-05-22T19:32:42.026Z,79.60
2019-05-22T19:35:11.029Z,78.70
2019-05-22T19:37:39.826Z,78.90
2019-05-22T19:40:10.676Z,79.10
2019-05-22T19:42:39.669Z,79.00
2019-05-22T19:45:09.863Z,78.80
2019-05-22T19:47:40.040Z,77.80
2019-05-22T19:50:22.846Z,77.10
2019-05-22T19:52:42.628Z,76.50
2019-05-22T19:55:12.856Z,76.40
2019-05-22T19:57:42.886Z,77.70
2019-05-22T20:00:12.750Z,78.30
2019-05-22T20:02:42.511Z,79.10
2019-05-22T20:05:11.996Z,80.10
2019-05-22T20:07:41.165Z,80.10
2019-05-22T20:10:11.244Z,80.30
2019-05-22T20:12:41.261Z,81.20
2019-05-22T20:15:12.429Z,82.10
2019-05-22T20:17:41.476Z,83.80
2019-05-22T20:20:12.975Z,84.20
2019-05-22T20:22:44.729Z,83.80
2019-05-22T20:25:16.122Z,81.80
2019-05-22T20:27:44.879Z,80.50
2019-05-22T20:30:15.851Z,80.50
2019-05-22T20:32:45.189Z,80.40
2019-05-22T20:35:14.875Z,79.70
2019-05-22T20:37:45.567Z,80.50
2019-05-22T20:40:16.085Z,82.10
2019-05-22T20:42:44.832Z,83.70
2019-05-22T20:45:15.194Z,85.40
2019-05-22T20:47:46.487Z,85.10
2019-05-22T20:50:15.917Z,85.60
2019-05-22T20:52:45.744Z,86.30
2019-05-22T20:55:16.590Z,86.80
2019-05-22T20:57:45.398Z,87.10
2019-05-22T21:00:17.181Z,87.80
2019-05-22T21:02:46.820Z,88.30
2019-05-22T21:05:18.377Z,89.40
2019-05-22T21:07:51.083Z,89.90
2019-05-22T21:10:23.650Z,90.00
2019-05-22T21:12:54.397Z,90.00
2019-05-22T21:15:23.721Z,89.90
2019-05-22T21:17:54.241Z,90.10
2019-05-22T21:20:24.998Z,90.50
2019-05-22T21:22:53.883Z,90.80
2019-05-22T21:25:23.235Z,90.90
2019-05-22T21:27:54.387Z,91.00
2019-05-22T21:30:24.313Z,91.00
2019-05-22T21:32:53.093Z,91.10
2019-05-22T21:35:22.958Z,91.10
2019-05-22T21:37:52.965Z,91.20
2019-05-22T21:40:23.172Z,91.30
2019-05-22T21:42:54.138Z,91.10
2019-05-22T21:45:24.218Z,91.30
2019-05-22T21:47:54.693Z,91.10
2019-05-22T21:50:23.783Z,91.30
2019-05-22T21:52:53.386Z,91.40
2019-05-22T21:55:24.354Z,91.40
2019-05-22T21:57:53.589Z,91.50
2019-05-22T22:00:26.873Z,91.60
2019-05-22T22:02:58.421Z,91.70
2019-05-22T22:05:27.879Z,91.90
2019-05-22T22:07:56.968Z,91.70
2019-05-22T22:10:26.277Z,91.60
2019-05-22T22:12:56.194Z,91.60
2019-05-22T22:15:38.247Z,91.40
2019-05-22T22:18:07.947Z,91.00
2019-05-22T22:20:37.042Z,91.00
2019-05-22T22:23:07.329Z,90.80
2019-05-22T22:25:39.859Z,90.80
2019-05-22T22:28:08.675Z,90.90
2019-05-22T22:30:41.976Z,90.70
2019-05-22T22:33:12.121Z,90.70
2019-05-22T22:35:42.025Z,90.90
2019-05-22T22:38:11.808Z,90.90
2019-05-22T22:40:42.271Z,91.00
2019-05-22T22:43:12.713Z,91.00
2019-05-22T22:45:47.784Z,90.90
2019-05-22T22:48:18.364Z,91.00
2019-05-22T22:50:47.280Z,91.00
2019-05-22T22:53:17.367Z,90.90
2019-05-22T22:55:48.726Z,91.10
2019-05-22T22:58:19.668Z,91.10
2019-05-22T23:00:49.557Z,91.00
2019-05-22T23:03:22.287Z,90.80
2019-05-22T23:05:51.385Z,90.70
2019-05-22T23:08:26.366Z,90.80
2019-05-22T23:10:56.714Z,90.90
2019-05-22T23:13:26.400Z,91.10
2019-05-22T23:15:56.255Z,91.40
2019-05-22T23:18:44.497Z,91.40
2019-05-22T23:21:13.867Z,91.40
2019-05-22T23:23:42.025Z,91.20
2019-05-22T23:26:11.703Z,91.20
2019-05-22T23:28:42.009Z,91.30
2019-05-22T23:31:12.115Z,91.10
2019-05-22T23:33:41.134Z,91.10
2019-05-22T23:36:12.207Z,91.30
2019-05-22T23:38:41.869Z,90.70
2019-05-22T23:41:12.192Z,90.70
2019-05-22T23:43:42.558Z,90.90
2019-05-22T23:46:13.536Z,90.90
2019-05-22T23:48:43.137Z,91.00
2019-05-22T23:51:12.490Z,90.80
2019-05-22T23:53:43.165Z,90.70
2019-05-22T23:56:12.425Z,90.70
2019-05-22T23:58:52.408Z,90.80
